Time;durP1;ratioP1;P1;durP2;ratioP2;P2;SDS_P1;SDS_P2;PMS_P1;PMS_P2;Temp;Humidity;BMP_temperature;BMP_pressure;BME280_temperature;BME280_humidity;BME280_pressure;Samples;Min_cycle;Max_cycle;Signal;HPM_P1;HPM_P2
2024/03/25 00:01:24;;;;;;;;;;;23.00;41.40;;;;;;5074932;28;20282;-42
2024/03/25 00:03:50;;;;;;;;;;;23.00;41.40;;;;;;5075107;28;19913;-44
2024/03/25 00:06:16;;;;;;;;;;;23.00;41.40;;;;;;5076104;28;19915;-42
2024/03/25 00:08:42;;;;;;;;;;;23.00;41.20;;;;;;5067568;28;19935;-44
2024/03/25 00:11:08;;;;;;;;;;;23.00;41.60;;;;;;5072738;28;19912;-43
2024/03/25 00:13:34;;;;;;;;;;;23.00;41.60;;;;;;5070337;28;19917;-43
2024/03/25 00:15:59;;;;;;;;;;;23.00;41.60;;;;;;5067221;28;19963;-46
2024/03/25 00:18:25;;;;;;;;;;;23.00;41.60;;;;;;5067221;28;19908;-41
2024/03/25 00:20:51;;;;;;;;;;;22.90;41.50;;;;;;5066709;28;19913;-41
2024/03/25 00:23:17;;;;;;;;;;;22.90;41.40;;;;;;5072199;28;19936;-41
2024/03/25 00:25:43;;;;;;;;;;;22.90;41.30;;;;;;5080088;28;19912;-45
2024/03/25 00:28:09;;;;;;;;;;;22.90;41.40;;;;;;5077890;28;19916;-42
2024/03/25 00:30:35;;;;;;;;;;;23.00;41.70;;;;;;5069298;28;19909;-40
2024/03/25 00:33:00;;;;;;;;;;;23.00;41.60;;;;;;5066069;28;19909;-47
2024/03/25 00:35:27;;;;;;;;;;;22.90;41.60;;;;;;5066291;28;19916;-41
2024/03/25 00:37:53;;;;;;;;;;;22.90;41.50;;;;;;5074679;28;19912;-43
2024/03/25 00:40:20;;;;;;;;;;;22.90;41.60;;;;;;5066457;28;19951;-43
2024/03/25 00:42:46;;;;;;;;;;;22.90;41.40;;;;;;5066663;28;19908;-42
2024/03/25 00:45:12;;;;;;;;;;;22.90;41.50;;;;;;5103172;28;19927;-44
2024/03/25 00:47:38;;;;;;;;;;;22.90;41.80;;;;;;5069889;28;19913;-43
2024/03/25 00:50:04;;;;;;;;;;;22.90;41.70;;;;;;5072329;28;19928;-48
2024/03/25 00:52:30;;;;;;;;;;;22.90;41.70;;;;;;5073969;28;20017;-42
2024/03/25 00:54:56;;;;;;;;;;;22.90;41.60;;;;;;5072204;28;19912;-41
2024/03/25 00:57:22;;;;;;;;;;;22.80;41.60;;;;;;5072459;28;20020;-40
2024/03/25 00:59:49;;;;;;;;;;;22.80;41.50;;;;;;5068447;28;19916;-39
2024/03/25 01:02:15;;;;;;;;;;;22.80;41.70;;;;;;5071868;28;19920;-43
2024/03/25 01:04:41;;;;;;;;;;;22.90;41.80;;;;;;5081191;28;19908;-42
2024/03/25 01:07:08;;;;;;;;;;;22.90;41.80;;;;;;5077378;28;19908;-41
2024/03/25 01:09:35;;;;;;;;;;;22.80;41.80;;;;;;5075117;28;20731;-46
2024/03/25 01:12:01;;;;;;;;;;;22.80;41.70;;;;;;5075517;28;20410;-41
2024/03/25 01:14:32;;;;;;;;;;;22.80;41.80;;;;;;5069915;28;19966;-40
2024/03/25 01:16:58;;;;;;;;;;;22.70;41.50;;;;;;5080811;28;19916;-43
2024/03/25 01:19:25;;;;;;;;;;;22.80;41.70;;;;;;5065937;28;19921;-41
2024/03/25 01:21:52;;;;;;;;;;;22.80;42.00;;;;;;5067508;28;19916;-43
2024/03/25 01:24:18;;;;;;;;;;;22.80;41.80;;;;;;5074796;28;19974;-41
2024/03/25 01:26:46;;;;;;;;;;;22.80;41.80;;;;;;5065373;28;19997;-41
2024/03/25 01:29:12;;;;;;;;;;;22.80;41.90;;;;;;5065525;28;19919;-40
2024/03/25 01:31:40;;;;;;;;;;;22.70;41.80;;;;;;5065288;28;19913;-44
2024/03/25 01:34:06;;;;;;;;;;;22.70;41.70;;;;;;5069870;28;19919;-42
2024/03/25 01:36:35;;;;;;;;;;;22.70;41.80;;;;;;5080057;28;19952;-43
2024/03/25 01:39:01;;;;;;;;;;;22.70;41.90;;;;;;5075628;28;19919;-42
2024/03/25 01:41:28;;;;;;;;;;;22.80;42.00;;;;;;5083936;28;19913;-41
2024/03/25 01:43:54;;;;;;;;;;;22.70;41.80;;;;;;5075104;28;19927;-41
2024/03/25 01:46:21;;;;;;;;;;;22.70;41.80;;;;;;5075578;28;19923;-40
2024/03/25 01:48:49;;;;;;;;;;;22.70;41.80;;;;;;5077959;28;19912;-42
2024/03/25 01:51:17;;;;;;;;;;;22.70;41.70;;;;;;5065807;28;19909;-42
2024/03/25 01:53:43;;;;;;;;;;;22.70;41.70;;;;;;5077415;28;19966;-42
2024/03/25 01:56:10;;;;;;;;;;;22.70;41.80;;;;;;5064842;28;19925;-40
2024/03/25 01:58:37;;;;;;;;;;;22.70;42.00;;;;;;5079181;28;19919;-42
2024/03/25 02:01:04;;;;;;;;;;;22.70;41.90;;;;;;5081801;28;20557;-40
2024/03/25 02:03:30;;;;;;;;;;;22.70;41.90;;;;;;5075501;28;19939;-43
2024/03/25 02:06:00;;;;;;;;;;;22.70;41.80;;;;;;5074718;28;19909;-45
2024/03/25 02:08:27;;;;;;;;;;;22.60;41.80;;;;;;5069051;28;20353;-40
2024/03/25 02:10:54;;;;;;;;;;;22.60;41.70;;;;;;5079885;28;20345;-45
2024/03/25 02:13:20;;;;;;;;;;;22.60;41.90;;;;;;5078403;28;19912;-42
2024/03/25 02:15:46;;;;;;;;;;;22.70;41.90;;;;;;5072933;28;19917;-41
2024/03/25 02:18:13;;;;;;;;;;;22.70;41.90;;;;;;5074906;28;19918;-43
2024/03/25 02:20:39;;;;;;;;;;;22.60;41.80;;;;;;5079674;28;19936;-43
2024/03/25 02:23:06;;;;;;;;;;;22.60;41.70;;;;;;5072391;28;20570;-41
2024/03/25 02:25:33;;;;;;;;;;;22.60;41.80;;;;;;5072054;28;19912;-40
2024/03/25 02:27:59;;;;;;;;;;;22.60;41.60;;;;;;5074938;28;19919;-41
2024/03/25 02:30:25;;;;;;;;;;;22.60;41.90;;;;;;5076141;28;19909;-42
2024/03/25 02:32:51;;;;;;;;;;;22.70;41.80;;;;;;5073509;28;19943;-44
2024/03/25 02:35:18;;;;;;;;;;;22.70;41.80;;;;;;5069864;28;19959;-41
2024/03/25 02:37:44;;;;;;;;;;;22.60;41.80;;;;;;5064214;28;19912;-41
2024/03/25 02:40:11;;;;;;;;;;;22.60;41.70;;;;;;5078397;28;20049;-43
2024/03/25 02:42:39;;;;;;;;;;;22.60;41.70;;;;;;5071388;28;19913;-43
2024/03/25 02:45:06;;;;;;;;;;;22.50;41.60;;;;;;5069590;28;19987;-39
2024/03/25 02:47:32;;;;;;;;;;;22.60;41.80;;;;;;5069571;28;19964;-41
2024/03/25 02:50:00;;;;;;;;;;;22.60;41.90;;;;;;5075021;28;19909;-41
2024/03/25 02:52:26;;;;;;;;;;;22.60;41.80;;;;;;5072385;28;19915;-40
2024/03/25 02:54:54;;;;;;;;;;;22.60;41.70;;;;;;5068495;28;20018;-40
2024/03/25 02:57:20;;;;;;;;;;;22.60;41.70;;;;;;5080085;28;19920;-42
2024/03/25 02:59:47;;;;;;;;;;;22.60;41.70;;;;;;5066747;28;19919;-40
2024/03/25 03:02:14;;;;;;;;;;;22.50;42.30;;;;;;5074851;28;20583;-41
2024/03/25 03:04:40;;;;;;;;;;;22.60;41.80;;;;;;5074131;28;19923;-41
2024/03/25 03:07:06;;;;;;;;;;;22.60;41.90;;;;;;5067263;28;19958;-40
2024/03/25 03:09:32;;;;;;;;;;;22.60;41.80;;;;;;5074323;28;19913;-44
2024/03/25 03:11:58;;;;;;;;;;;22.60;41.80;;;;;;5074072;28;19927;-41
2024/03/25 03:14:24;;;;;;;;;;;22.60;41.90;;;;;;5075326;28;19912;-41
2024/03/25 03:16:54;;;;;;;;;;;22.50;41.70;;;;;;5071802;28;19931;-42
2024/03/25 03:19:21;;;;;;;;;;;22.50;41.70;;;;;;5075784;28;19920;-41
2024/03/25 03:21:47;;;;;;;;;;;22.50;41.80;;;;;;5080138;28;19926;-40
2024/03/25 03:24:13;;;;;;;;;;;22.60;41.90;;;;;;5071091;28;19932;-41
2024/03/25 03:26:39;;;;;;;;;;;22.60;41.80;;;;;;5077696;28;19936;-43
2024/03/25 03:29:05;;;;;;;;;;;22.60;41.80;;;;;;5073640;28;19912;-40
2024/03/25 03:31:31;;;;;;;;;;;22.50;41.70;;;;;;5072707;28;19919;-43
2024/03/25 03:33:57;;;;;;;;;;;22.50;41.70;;;;;;5073763;28;19912;-41
2024/03/25 03:36:23;;;;;;;;;;;22.50;41.70;;;;;;5072635;28;19964;-41
2024/03/25 03:38:52;;;;;;;;;;;22.50;41.80;;;;;;5072136;28;19913;-44
2024/03/25 03:41:18;;;;;;;;;;;22.50;41.90;;;;;;5075856;28;19912;-43
2024/03/25 03:43:44;;;;;;;;;;;22.60;41.90;;;;;;5072468;28;20357;-40
2024/03/25 03:46:10;;;;;;;;;;;22.50;41.80;;;;;;5067067;28;19931;-41
2024/03/25 03:48:37;;;;;;;;;;;22.50;41.80;;;;;;5081232;28;19909;-43
2024/03/25 03:51:07;;;;;;;;;;;22.50;41.80;;;;;;5080363;28;19912;-41
2024/03/25 03:53:33;;;;;;;;;;;22.50;41.80;;;;;;5077716;28;19909;-41
2024/03/25 03:55:59;;;;;;;;;;;22.50;41.90;;;;;;5074410;28;20023;-42
2024/03/25 03:58:25;;;;;;;;;;;22.50;42.00;;;;;;5076049;28;20365;-40
2024/03/25 04:00:52;;;;;;;;;;;22.50;41.90;;;;;;5072782;28;19912;-41
2024/03/25 04:03:18;;;;;;;;;;;22.50;41.90;;;;;;5079250;28;20434;-40
2024/03/25 04:05:44;;;;;;;;;;;22.50;41.70;;;;;;5072457;28;19908;-42
2024/03/25 04:08:10;;;;;;;;;;;22.50;41.80;;;;;;5080447;28;19912;-40
2024/03/25 04:10:36;;;;;;;;;;;22.40;41.70;;;;;;5076114;28;19908;-42
2024/03/25 04:13:03;;;;;;;;;;;22.50;41.90;;;;;;5079743;28;19912;-40
2024/03/25 04:15:29;;;;;;;;;;;22.60;41.90;;;;;;5074250;28;19920;-41
2024/03/25 04:17:55;;;;;;;;;;;22.50;41.80;;;;;;5072505;28;19908;-42
2024/03/25 04:20:21;;;;;;;;;;;22.50;41.80;;;;;;5073801;28;20304;-41
2024/03/25 04:22:47;;;;;;;;;;;22.50;41.70;;;;;;5069457;28;19916;-43
2024/03/25 04:25:16;;;;;;;;;;;22.40;41.80;;;;;;5066862;28;19909;-41
2024/03/25 04:27:42;;;;;;;;;;;22.40;41.60;;;;;;5068936;28;19984;-41
2024/03/25 04:30:08;;;;;;;;;;;22.50;41.90;;;;;;5070062;28;19913;-41
2024/03/25 04:32:34;;;;;;;;;;;22.50;41.80;;;;;;5062477;28;19912;-42
2024/03/25 04:35:00;;;;;;;;;;;22.50;41.80;;;;;;5066468;28;19916;-40
2024/03/25 04:37:27;;;;;;;;;;;22.50;41.80;;;;;;5074217;28;19916;-44
2024/03/25 04:39:54;;;;;;;;;;;22.50;41.60;;;;;;5066267;28;20440;-42
2024/03/25 04:42:19;;;;;;;;;;;22.40;41.60;;;;;;5075448;28;19916;-43
2024/03/25 04:44:45;;;;;;;;;;;22.40;41.70;;;;;;5070900;28;19921;-41
2024/03/25 04:47:12;;;;;;;;;;;22.50;41.90;;;;;;5074297;28;20063;-41
2024/03/25 04:49:38;;;;;;;;;;;22.50;41.80;;;;;;5066984;28;20467;-44
2024/03/25 04:52:07;;;;;;;;;;;22.50;41.80;;;;;;5065901;28;19944;-41
2024/03/25 04:54:32;;;;;;;;;;;22.40;41.70;;;;;;5071726;28;19955;-41
2024/03/25 04:56:58;;;;;;;;;;;22.40;41.70;;;;;;5074404;28;19929;-43
2024/03/25 04:59:24;;;;;;;;;;;22.40;41.60;;;;;;5073329;28;19917;-41
2024/03/25 05:01:51;;;;;;;;;;;22.40;41.60;;;;;;5065977;28;19917;-41
2024/03/25 05:04:20;;;;;;;;;;;22.40;41.70;;;;;;5070899;28;19912;-40
2024/03/25 05:06:46;;;;;;;;;;;22.50;41.70;;;;;;5076052;28;19908;-41
2024/03/25 05:09:12;;;;;;;;;;;22.50;41.60;;;;;;5075375;28;20003;-43
2024/03/25 05:11:38;;;;;;;;;;;22.40;41.50;;;;;;5067093;28;19913;-46
2024/03/25 05:14:04;;;;;;;;;;;22.40;41.50;;;;;;5065579;28;20011;-41
2024/03/25 05:16:30;;;;;;;;;;;22.40;41.50;;;;;;5068338;28;19932;-41
2024/03/25 05:18:56;;;;;;;;;;;22.40;41.60;;;;;;5074882;28;19909;-45
2024/03/25 05:21:22;;;;;;;;;;;22.40;41.70;;;;;;5070915;28;20009;-40
2024/03/25 05:23:48;;;;;;;;;;;22.40;41.60;;;;;;5077786;28;19912;-41
2024/03/25 05:26:14;;;;;;;;;;;22.40;41.70;;;;;;5069985;28;19951;-43
2024/03/25 05:28:41;;;;;;;;;;;22.40;41.60;;;;;;5069238;28;19912;-43
2024/03/25 05:31:10;;;;;;;;;;;22.40;41.50;;;;;;5047862;28;19952;-40
2024/03/25 05:33:36;;;;;;;;;;;22.30;41.50;;;;;;5066087;28;19919;-46
2024/03/25 05:36:02;;;;;;;;;;;22.40;41.50;;;;;;5080810;28;19928;-42
2024/03/25 05:38:28;;;;;;;;;;;22.40;41.60;;;;;;5072555;28;19913;-40
2024/03/25 05:40:54;;;;;;;;;;;22.40;41.60;;;;;;5070884;28;19983;-42
2024/03/25 05:43:22;;;;;;;;;;;22.40;41.50;;;;;;5076177;28;19943;-41
2024/03/25 05:45:51;;;;;;;;;;;22.40;41.50;;;;;;5065626;28;19966;-39
2024/03/25 05:48:17;;;;;;;;;;;22.30;41.40;;;;;;5078216;28;19909;-42
2024/03/25 05:50:43;;;;;;;;;;;22.30;41.40;;;;;;5082828;28;19908;-44
2024/03/25 05:53:09;;;;;;;;;;;22.40;41.50;;;;;;5065593;28;19955;-42
2024/03/25 05:55:35;;;;;;;;;;;22.40;41.50;;;;;;5065835;28;19922;-45
2024/03/25 05:58:01;;;;;;;;;;;22.40;41.50;;;;;;5065758;28;19916;-40
2024/03/25 06:00:27;;;;;;;;;;;22.40;41.40;;;;;;5068297;28;19912;-40
2024/03/25 06:02:53;;;;;;;;;;;22.30;41.40;;;;;;5066066;28;19988;-41
2024/03/25 06:05:19;;;;;;;;;;;22.30;41.30;;;;;;5072477;28;19927;-41
2024/03/25 06:07:45;;;;;;;;;;;22.30;41.50;;;;;;5072215;28;19912;-45
2024/03/25 06:10:11;;;;;;;;;;;22.40;41.50;;;;;;5074398;28;19934;-41
2024/03/25 06:12:37;;;;;;;;;;;22.40;41.50;;;;;;5075545;28;19909;-43
2024/03/25 06:15:03;;;;;;;;;;;22.30;41.40;;;;;;5067514;28;19927;-44
2024/03/25 06:17:29;;;;;;;;;;;22.30;41.40;;;;;;5074582;28;19941;-45
2024/03/25 06:19:55;;;;;;;;;;;22.30;41.40;;;;;;5078660;28;19913;-45
2024/03/25 06:22:21;;;;;;;;;;;22.30;41.40;;;;;;5073743;28;19920;-46
2024/03/25 06:24:49;;;;;;;;;;;22.40;41.60;;;;;;5068189;28;19927;-48
2024/03/25 06:27:15;;;;;;;;;;;22.40;41.50;;;;;;5074950;28;19912;-40
2024/03/25 06:29:41;;;;;;;;;;;22.30;41.40;;;;;;5066429;28;19976;-40
2024/03/25 06:34:53;;;;;;;;;;;22.30;41.30;;;;;;5080067;28;19919;-42
2024/03/25 06:37:18;;;;;;;;;;;22.30;41.40;;;;;;5074569;28;19926;-42
2024/03/25 06:39:44;;;;;;;;;;;22.30;41.40;;;;;;5075281;28;19948;-40
2024/03/25 06:42:10;;;;;;;;;;;22.30;41.40;;;;;;5081500;28;19965;-41
2024/03/25 06:44:36;;;;;;;;;;;22.30;41.40;;;;;;5079954;28;19935;-42
2024/03/25 06:47:02;;;;;;;;;;;22.30;41.20;;;;;;5071023;28;19974;-44
2024/03/25 06:49:28;;;;;;;;;;;22.30;41.30;;;;;;5064416;28;19931;-41
2024/03/25 06:51:54;;;;;;;;;;;22.30;41.40;;;;;;5066730;28;19917;-43
2024/03/25 06:54:20;;;;;;;;;;;22.30;41.40;;;;;;5079639;28;19923;-40
2024/03/25 06:56:46;;;;;;;;;;;22.30;41.50;;;;;;5065887;28;19916;-41
2024/03/25 06:59:12;;;;;;;;;;;22.30;41.40;;;;;;5081359;28;19984;-44
2024/03/25 07:01:37;;;;;;;;;;;22.30;41.40;;;;;;5080449;28;19916;-43
2024/03/25 07:04:04;;;;;;;;;;;22.30;41.40;;;;;;5063179;28;19913;-42
2024/03/25 07:06:30;;;;;;;;;;;22.30;41.30;;;;;;5063873;28;19920;-42
2024/03/25 07:08:56;;;;;;;;;;;22.20;41.30;;;;;;5072939;28;19909;-44
2024/03/25 07:11:22;;;;;;;;;;;22.30;41.40;;;;;;5072110;28;19918;-42
2024/03/25 07:13:49;;;;;;;;;;;22.30;41.50;;;;;;5072560;28;19920;-44
2024/03/25 07:16:15;;;;;;;;;;;22.30;41.50;;;;;;5068976;28;19928;-42
2024/03/25 07:18:40;;;;;;;;;;;22.30;41.40;;;;;;5064647;28;19983;-44
2024/03/25 07:21:06;;;;;;;;;;;22.30;41.30;;;;;;5070548;28;19924;-40
2024/03/25 07:23:32;;;;;;;;;;;22.20;41.30;;;;;;5092715;28;19984;-41
2024/03/25 07:25:58;;;;;;;;;;;22.20;41.40;;;;;;5064793;28;20412;-42
2024/03/25 07:28:24;;;;;;;;;;;22.30;41.50;;;;;;5070859;28;19994;-41
2024/03/25 07:30:50;;;;;;;;;;;22.30;41.50;;;;;;5077136;28;19924;-41
2024/03/25 07:33:17;;;;;;;;;;;22.30;41.50;;;;;;5071237;28;19909;-43
2024/03/25 07:35:44;;;;;;;;;;;22.30;41.50;;;;;;5063716;28;19967;-45
2024/03/25 07:38:10;;;;;;;;;;;22.20;41.40;;;;;;5074050;28;19912;-46
2024/03/25 07:40:36;;;;;;;;;;;22.30;41.50;;;;;;5072997;28;19912;-46
2024/03/25 07:43:02;;;;;;;;;;;22.30;41.60;;;;;;5070355;28;19998;-46
2024/03/25 07:45:29;;;;;;;;;;;22.30;41.50;;;;;;5069622;28;19956;-45
2024/03/25 07:47:55;;;;;;;;;;;22.30;41.50;;;;;;5080638;28;19919;-45
2024/03/25 07:50:21;;;;;;;;;;;22.30;41.50;;;;;;5074182;28;20671;-41
2024/03/25 07:52:47;;;;;;;;;;;22.30;41.40;;;;;;5075310;28;19912;-43
2024/03/25 07:55:14;;;;;;;;;;;22.20;41.30;;;;;;5072160;28;19909;-46
2024/03/25 07:57:40;;;;;;;;;;;22.20;41.40;;;;;;5078544;28;19951;-41
2024/03/25 08:00:08;;;;;;;;;;;22.30;41.60;;;;;;5070700;28;19912;-43
2024/03/25 08:02:34;;;;;;;;;;;22.30;41.60;;;;;;5070516;28;19920;-42
2024/03/25 08:05:01;;;;;;;;;;;22.30;41.60;;;;;;5073375;28;20038;-45
2024/03/25 08:07:27;;;;;;;;;;;22.30;41.50;;;;;;5080739;28;19981;-43
2024/03/25 08:09:53;;;;;;;;;;;22.20;41.50;;;;;;5080076;28;19916;-39
2024/03/25 08:12:19;;;;;;;;;;;22.20;41.90;;;;;;5076347;28;19908;-40
2024/03/25 08:14:45;;;;;;;;;;;22.20;41.50;;;;;;5077477;28;19918;-41
2024/03/25 08:17:11;;;;;;;;;;;22.30;41.70;;;;;;5074490;28;19943;-41
2024/03/25 08:19:37;;;;;;;;;;;22.30;41.70;;;;;;5084783;28;19912;-42
2024/03/25 08:22:04;;;;;;;;;;;22.30;41.60;;;;;;5084807;28;19912;-42
2024/03/25 08:24:29;;;;;;;;;;;22.20;41.50;;;;;;5078896;28;19983;-43
2024/03/25 08:26:55;;;;;;;;;;;22.20;41.40;;;;;;5074602;28;20312;-43
2024/03/25 08:29:21;;;;;;;;;;;22.20;41.60;;;;;;5079093;28;19912;-42
2024/03/25 08:31:47;;;;;;;;;;;22.20;41.60;;;;;;5076195;28;19912;-42
2024/03/25 08:34:13;;;;;;;;;;;22.30;41.70;;;;;;5084270;28;20513;-40
2024/03/25 08:36:39;;;;;;;;;;;22.30;41.70;;;;;;5086090;28;19920;-41
2024/03/25 08:39:05;;;;;;;;;;;22.30;41.70;;;;;;5084637;28;20375;-40
2024/03/25 08:41:32;;;;;;;;;;;22.20;41.60;;;;;;5068623;28;19913;-43
2024/03/25 08:43:58;;;;;;;;;;;22.20;41.60;;;;;;5073513;28;19923;-41
2024/03/25 08:46:24;;;;;;;;;;;22.20;41.70;;;;;;5072131;28;19912;-41
2024/03/25 08:48:50;;;;;;;;;;;22.20;41.70;;;;;;5083498;28;19961;-40
2024/03/25 08:51:16;;;;;;;;;;;22.30;41.70;;;;;;5078062;28;19916;-39
2024/03/25 08:53:42;;;;;;;;;;;22.20;41.60;;;;;;5081412;28;19912;-40
2024/03/25 08:56:07;;;;;;;;;;;22.20;41.60;;;;;;5077841;28;19916;-42
2024/03/25 08:58:33;;;;;;;;;;;22.20;41.50;;;;;;5083956;28;19943;-40
2024/03/25 09:00:59;;;;;;;;;;;22.20;41.60;;;;;;5082969;28;19913;-41
2024/03/25 09:03:25;;;;;;;;;;;22.20;41.70;;;;;;5084090;28;19955;-43
2024/03/25 09:05:51;;;;;;;;;;;22.20;41.70;;;;;;5082922;28;19912;-41
2024/03/25 09:08:17;;;;;;;;;;;22.30;42.30;;;;;;5077081;28;19942;-41
2024/03/25 09:11:06;;;;;;;;;;;22.20;41.60;;;;;;5074595;28;19909;-44
2024/03/25 09:13:32;;;;;;;;;;;22.20;41.60;;;;;;5080491;28;20504;-40
2024/03/25 09:15:58;;;;;;;;;;;22.20;41.70;;;;;;5082856;28;19947;-43
2024/03/25 09:18:24;;;;;;;;;;;22.20;41.70;;;;;;5084021;28;19912;-41
2024/03/25 09:20:50;;;;;;;;;;;22.20;41.80;;;;;;5082625;28;20459;-43
2024/03/25 09:23:16;;;;;;;;;;;22.20;41.80;;;;;;5078991;28;19931;-42
2024/03/25 09:25:50;;;;;;;;;;;22.20;41.80;;;;;;5068135;28;20009;-43
2024/03/25 09:28:16;;;;;;;;;;;22.20;41.70;;;;;;5076768;28;19935;-41
2024/03/25 09:30:42;;;;;;;;;;;22.20;41.80;;;;;;5075019;28;19916;-41
2024/03/25 09:33:08;;;;;;;;;;;22.20;41.90;;;;;;5079411;28;19915;-41
2024/03/25 09:35:34;;;;;;;;;;;22.20;42.00;;;;;;5066265;28;19951;-42
2024/03/25 09:38:00;;;;;;;;;;;22.20;41.90;;;;;;5073403;28;19917;-44
2024/03/25 09:40:26;;;;;;;;;;;22.20;42.50;;;;;;5070273;28;19919;-41
2024/03/25 09:42:52;;;;;;;;;;;22.20;41.90;;;;;;5081582;28;20354;-40
2024/03/25 09:45:18;;;;;;;;;;;22.20;41.90;;;;;;5081348;28;19920;-42
2024/03/25 09:47:47;;;;;;;;;;;22.10;41.90;;;;;;5081502;28;19915;-40
2024/03/25 09:50:16;;;;;;;;;;;22.20;42.00;;;;;;5079260;28;19951;-40
2024/03/25 09:52:42;;;;;;;;;;;22.20;42.00;;;;;;5080742;28;19972;-40
2024/03/25 09:55:08;;;;;;;;;;;22.20;42.00;;;;;;5072265;28;19908;-40
2024/03/25 09:57:34;;;;;;;;;;;22.20;41.80;;;;;;5066271;28;20026;-41
2024/03/25 10:00:00;;;;;;;;;;;22.20;41.90;;;;;;5067434;28;19954;-40
2024/03/25 10:02:27;;;;;;;;;;;22.10;41.80;;;;;;5071185;28;19916;-40
2024/03/25 10:04:52;;;;;;;;;;;22.20;42.00;;;;;;5066312;28;19932;-41
2024/03/25 10:07:24;;;;;;;;;;;22.20;42.00;;;;;;5065785;28;19917;-43
2024/03/25 10:09:51;;;;;;;;;;;22.20;42.00;;;;;;5067883;28;19916;-43
2024/03/25 10:12:17;;;;;;;;;;;22.20;42.00;;;;;;5066127;28;19988;-40
2024/03/25 10:14:43;;;;;;;;;;;22.20;41.90;;;;;;5082125;28;19917;-41
2024/03/25 10:17:08;;;;;;;;;;;22.10;41.80;;;;;;5075938;28;19916;-40
2024/03/25 10:19:34;;;;;;;;;;;22.10;42.00;;;;;;5078270;28;19916;-40
2024/03/25 10:22:04;;;;;;;;;;;22.20;42.10;;;;;;5078500;28;19917;-40
2024/03/25 10:24:36;;;;;;;;;;;22.20;42.10;;;;;;5080917;28;19937;-41
2024/03/25 10:27:02;;;;;;;;;;;22.20;42.00;;;;;;5073644;28;20288;-44
2024/03/25 10:29:28;;;;;;;;;;;22.20;42.00;;;;;;5075082;28;19999;-45
2024/03/25 10:32:01;;;;;;;;;;;22.10;41.90;;;;;;5071730;28;19970;-43
2024/03/25 10:34:26;;;;;;;;;;;22.10;42.00;;;;;;5071623;28;19934;-43
2024/03/25 10:36:53;;;;;;;;;;;22.20;42.00;;;;;;5072993;28;19917;-43
2024/03/25 10:39:18;;;;;;;;;;;22.20;42.10;;;;;;5068038;28;19913;-44
2024/03/25 10:41:44;;;;;;;;;;;22.20;42.00;;;;;;5067237;28;19951;-43
2024/03/25 10:44:10;;;;;;;;;;;22.10;41.90;;;;;;5062539;28;19920;-41
2024/03/25 10:46:36;;;;;;;;;;;22.10;41.90;;;;;;5079693;28;19916;-41
2024/03/25 10:49:03;;;;;;;;;;;22.10;42.00;;;;;;5071087;28;19935;-41
2024/03/25 10:51:28;;;;;;;;;;;22.10;42.00;;;;;;5071018;28;19909;-43
2024/03/25 10:53:54;;;;;;;;;;;22.20;42.10;;;;;;5071428;28;19979;-43
2024/03/25 10:56:21;;;;;;;;;;;22.20;42.10;;;;;;5069222;28;20408;-40
2024/03/25 10:58:47;;;;;;;;;;;22.10;42.00;;;;;;5073173;28;19919;-41
2024/03/25 11:01:13;;;;;;;;;;;22.10;42.00;;;;;;5062709;28;19931;-39
2024/03/25 11:03:39;;;;;;;;;;;22.10;42.00;;;;;;5070117;28;19909;-40
2024/03/25 11:06:05;;;;;;;;;;;22.10;42.10;;;;;;5070861;28;19909;-40
2024/03/25 11:08:31;;;;;;;;;;;22.20;42.10;;;;;;5085427;28;19916;-42
2024/03/25 11:10:57;;;;;;;;;;;22.20;42.10;;;;;;5071207;28;19912;-40
2024/03/25 11:13:23;;;;;;;;;;;22.10;42.00;;;;;;5071282;28;20258;-41
2024/03/25 11:15:49;;;;;;;;;;;22.10;42.00;;;;;;5071107;28;19962;-40
2024/03/25 11:18:15;;;;;;;;;;;22.10;42.00;;;;;;5076061;28;20031;-41
2024/03/25 11:20:41;;;;;;;;;;;22.10;42.10;;;;;;5065939;28;19948;-42
2024/03/25 11:23:13;;;;;;;;;;;22.10;42.20;;;;;;5068040;28;20019;-41
2024/03/25 11:25:40;;;;;;;;;;;22.10;42.10;;;;;;5069706;28;20282;-41
2024/03/25 11:28:06;;;;;;;;;;;22.10;42.10;;;;;;5063710;28;20633;-41
2024/03/25 11:30:32;;;;;;;;;;;22.10;42.10;;;;;;5063244;28;19912;-42
2024/03/25 11:32:58;;;;;;;;;;;22.10;42.10;;;;;;5074664;28;19935;-41
2024/03/25 11:35:24;;;;;;;;;;;22.10;42.10;;;;;;5068300;28;19920;-42
2024/03/25 11:37:52;;;;;;;;;;;22.10;42.20;;;;;;5074166;28;19921;-43
2024/03/25 11:40:17;;;;;;;;;;;22.10;42.10;;;;;;5067861;28;19913;-40
2024/03/25 11:42:43;;;;;;;;;;;22.10;42.10;;;;;;5069126;28;19962;-42
2024/03/25 11:45:16;;;;;;;;;;;22.10;42.10;;;;;;5073497;28;19920;-40
2024/03/25 11:47:42;;;;;;;;;;;22.00;42.00;;;;;;5073400;28;19984;-41
2024/03/25 11:50:09;;;;;;;;;;;22.00;42.10;;;;;;5072139;28;19919;-41
2024/03/25 11:52:35;;;;;;;;;;;22.10;42.20;;;;;;5112189;28;19935;-43
2024/03/25 11:55:01;;;;;;;;;;;22.10;42.20;;;;;;5079285;28;19916;-41
2024/03/25 11:57:28;;;;;;;;;;;22.10;42.10;;;;;;5074163;28;19920;-40
2024/03/25 11:59:53;;;;;;;;;;;22.10;42.10;;;;;;5070491;28;20344;-40
2024/03/25 12:02:19;;;;;;;;;;;22.00;42.00;;;;;;5088361;28;19912;-41
2024/03/25 12:04:45;;;;;;;;;;;22.00;42.10;;;;;;5079304;28;20392;-42
2024/03/25 12:07:14;;;;;;;;;;;22.10;42.20;;;;;;5072475;28;19982;-40
2024/03/25 12:12:25;;;;;;;;;;;22.10;42.10;;;;;;5075567;28;19949;-41
2024/03/25 12:14:52;;;;;;;;;;;22.10;42.10;;;;;;5078407;28;19913;-40
2024/03/25 12:17:37;;;;;;;;;;;22.10;42.10;;;;;;5070562;28;19917;-43
2024/03/25 12:20:07;;;;;;;;;;;22.00;42.10;;;;;;5085325;28;20053;-41
2024/03/25 12:22:34;;;;;;;;;;;22.10;42.10;;;;;;5088362;28;19911;-41
2024/03/25 12:25:00;;;;;;;;;;;22.10;42.10;;;;;;5069497;28;19954;-40
2024/03/25 12:27:27;;;;;;;;;;;22.10;42.10;;;;;;5086145;28;19919;-41
2024/03/25 12:30:06;;;;;;;;;;;22.10;42.00;;;;;;5084030;28;19948;-42
2024/03/25 12:32:32;;;;;;;;;;;22.00;42.00;;;;;;5069157;28;19954;-39
2024/03/25 12:34:58;;;;;;;;;;;22.00;42.00;;;;;;5085523;28;19912;-41
2024/03/25 12:37:26;;;;;;;;;;;22.10;42.10;;;;;;5086031;28;19920;-43
2024/03/25 12:39:52;;;;;;;;;;;22.10;42.10;;;;;;5085293;28;19912;-44
2024/03/25 12:42:18;;;;;;;;;;;22.10;42.00;;;;;;5086284;28;19935;-41
2024/03/25 12:44:44;;;;;;;;;;;22.10;42.00;;;;;;5083249;28;20391;-40
2024/03/25 12:47:09;;;;;;;;;;;22.10;42.00;;;;;;5085625;28;19912;-40
2024/03/25 12:49:35;;;;;;;;;;;22.00;41.90;;;;;;5085302;28;19966;-40
2024/03/25 12:52:04;;;;;;;;;;;22.00;42.00;;;;;;5085549;28;19909;-44
2024/03/25 12:54:30;;;;;;;;;;;22.10;42.00;;;;;;5063532;28;19908;-40
2024/03/25 12:56:55;;;;;;;;;;;22.10;41.90;;;;;;5086271;28;20003;-43
2024/03/25 12:59:21;;;;;;;;;;;22.10;41.90;;;;;;5079655;28;19912;-42
2024/03/25 13:01:47;;;;;;;;;;;22.10;41.90;;;;;;5078882;28;19934;-44
2024/03/25 13:04:13;;;;;;;;;;;22.10;41.90;;;;;;5085096;28;20002;-44
2024/03/25 13:06:39;;;;;;;;;;;22.00;41.90;;;;;;5083313;28;19959;-42
2024/03/25 13:09:06;;;;;;;;;;;22.10;42.00;;;;;;5083866;28;19919;-42
2024/03/25 13:11:32;;;;;;;;;;;22.10;42.00;;;;;;5076330;28;19920;-41
2024/03/25 13:14:00;;;;;;;;;;;22.10;41.90;;;;;;5082206;28;19912;-45
2024/03/25 13:16:26;;;;;;;;;;;22.10;41.90;;;;;;5083167;28;19931;-42
2024/03/25 13:18:52;;;;;;;;;;;22.10;41.90;;;;;;5081511;28;19944;-40
2024/03/25 13:21:18;;;;;;;;;;;22.10;41.90;;;;;;5077785;28;20590;-41
2024/03/25 13:23:43;;;;;;;;;;;22.10;41.90;;;;;;5075533;28;19944;-43
2024/03/25 13:26:09;;;;;;;;;;;22.10;41.90;;;;;;5077697;28;19912;-46
2024/03/25 13:28:35;;;;;;;;;;;22.10;41.80;;;;;;5075937;28;19912;-40
2024/03/25 13:31:01;;;;;;;;;;;22.10;41.80;;;;;;5068580;28;19908;-40
2024/03/25 13:33:27;;;;;;;;;;;22.10;41.80;;;;;;5070452;28;19935;-42
2024/03/25 13:35:53;;;;;;;;;;;22.10;41.70;;;;;;5081219;28;19931;-42
2024/03/25 13:38:19;;;;;;;;;;;22.10;41.80;;;;;;5083307;28;19912;-42
2024/03/25 13:40:45;;;;;;;;;;;22.10;41.80;;;;;;5081955;28;19912;-42
2024/03/25 13:43:11;;;;;;;;;;;22.10;41.70;;;;;;5083352;28;19912;-41
2024/03/25 13:45:38;;;;;;;;;;;22.10;41.70;;;;;;5075921;28;19950;-43
2024/03/25 13:48:04;;;;;;;;;;;22.10;41.60;;;;;;5074132;28;19912;-42
2024/03/25 13:50:30;;;;;;;;;;;22.10;41.60;;;;;;5076261;28;19951;-41
2024/03/25 13:52:56;;;;;;;;;;;22.10;41.50;;;;;;5089379;28;20309;-42
2024/03/25 13:55:22;;;;;;;;;;;22.10;41.60;;;;;;5072077;28;19908;-41
2024/03/25 13:57:48;;;;;;;;;;;22.20;41.50;;;;;;5079962;28;19963;-41
2024/03/25 14:00:14;;;;;;;;;;;22.20;41.50;;;;;;5082983;28;19908;-43
2024/03/25 14:02:40;;;;;;;;;;;22.20;41.50;;;;;;5082099;28;19955;-41
2024/03/25 14:05:06;;;;;;;;;;;22.10;41.50;;;;;;5079495;28;19913;-41
2024/03/25 14:07:32;;;;;;;;;;;22.10;41.40;;;;;;5080158;28;19919;-41
2024/03/25 14:09:59;;;;;;;;;;;22.10;41.50;;;;;;5081789;28;19940;-41
2024/03/25 14:12:25;;;;;;;;;;;22.20;41.50;;;;;;5082339;28;19927;-43
2024/03/25 14:14:51;;;;;;;;;;;22.20;41.50;;;;;;5072703;28;19916;-42
2024/03/25 14:17:17;;;;;;;;;;;22.20;41.40;;;;;;5068756;28;19974;-43